KMGM

Montgomery Regional (Dannelly Field) Airport

Montgomery, Alabama, USA
METAR KMGM 151253Z 34010KT 10SM CLR 04/M01 A3011 RMK AO2 SLP196 T00441006 $
Observed Flight Rules
Dec-15 @ 12:53 UTC (an hour ago) Visual Flight Rules
Wind Visibility Clouds
340° at 10 knots 10 miles
  • Clear skies
Temperatures Readings
Current 4°C / 39°F
Dewpoint -1°C / 30°F
Humidity 70%
Altimeter 30.11" Hg
Pressure 1019.6 hPa
Elevation 63
METAR KMGM 151253Z 34010KT 10SM CLR 04/M01 A3011 RMK AO2 SLP196 T00441006 $
Observed Flight Rules
Dec-15 @ 12:53 UTC
(an hour ago)
VFR
Wind Visibility
340° at 10 knots 10 miles
Clouds
  • Clear skies
Temperature Dewpoint
4°C / 39°F -1°C / 30°F
Humidity Altimeter Pressure
70% 30.11" Hg 1019.6 hPa